createdAt,value
2019-04-10T00:00:48.126Z,8.20
2019-04-10T00:03:28.142Z,8.20
2019-04-10T00:05:47.858Z,8.10
2019-04-10T00:08:17.771Z,8.10
2019-04-10T00:10:46.360Z,8.10
2019-04-10T00:13:14.861Z,8.10
2019-04-10T00:15:43.470Z,8.20
2019-04-10T00:18:12.150Z,8.20
2019-04-10T00:20:40.693Z,8.30
2019-04-10T00:23:09.167Z,8.40
2019-04-10T00:25:37.623Z,8.40
2019-04-10T00:28:08.035Z,8.40
2019-04-10T00:30:37.480Z,8.30
2019-04-10T00:33:06.117Z,8.30
2019-04-10T00:35:35.173Z,8.30
2019-04-10T00:38:03.829Z,8.30
2019-04-10T00:40:33.230Z,8.30
2019-04-10T00:43:02.297Z,8.30
2019-04-10T00:45:30.839Z,8.30
2019-04-10T00:47:59.576Z,8.30
2019-04-10T00:50:28.672Z,8.30
2019-04-10T00:52:57.287Z,8.30
2019-04-10T00:55:25.895Z,8.30
2019-04-10T00:57:54.783Z,8.40
2019-04-10T01:00:23.555Z,8.40
2019-04-10T01:02:53.754Z,8.40
2019-04-10T01:05:22.897Z,8.40
2019-04-10T01:07:51.948Z,8.50
2019-04-10T01:11:03.823Z,8.50
2019-04-10T01:13:32.698Z,8.40
2019-04-10T01:19:34.222Z,8.40
2019-04-10T01:22:03.135Z,8.40
2019-04-10T01:24:31.739Z,8.40
2019-04-10T01:27:01.231Z,8.40
2019-04-10T01:29:29.950Z,8.40
2019-04-10T01:31:59.437Z,8.40
2019-04-10T01:34:28.055Z,8.30
2019-04-10T01:36:56.542Z,8.30
2019-04-10T01:39:26.773Z,8.20
2019-04-10T01:41:56.360Z,8.20
2019-04-10T01:44:24.967Z,8.20
2019-04-10T01:46:53.440Z,8.20
2019-04-10T01:49:21.924Z,8.20
2019-04-10T01:51:50.383Z,8.30
2019-04-10T01:54:19.377Z,8.30
2019-04-10T01:56:47.996Z,8.30
2019-04-10T01:59:18.174Z,8.30
2019-04-10T02:01:48.427Z,8.30
2019-04-10T02:04:16.935Z,8.40
2019-04-10T02:06:45.443Z,8.30
2019-04-10T02:09:14.828Z,8.30
2019-04-10T02:11:43.582Z,8.20
2019-04-10T02:14:12.148Z,8.20
2019-04-10T02:16:41.118Z,8.30
2019-04-10T02:19:10.109Z,8.20
2019-04-10T02:21:38.670Z,8.20
2019-04-10T02:24:07.146Z,8.20
2019-04-10T02:26:35.989Z,8.20
2019-04-10T02:29:04.566Z,8.10
2019-04-10T02:31:34.299Z,8.10
2019-04-10T02:34:04.807Z,8.10
2019-04-10T02:36:34.410Z,8.10
2019-04-10T02:39:15.171Z,8.20
2019-04-10T02:41:36.443Z,8.20
2019-04-10T02:44:05.202Z,8.10
2019-04-10T02:46:33.736Z,8.20
2019-04-10T02:49:03.813Z,8.20
2019-04-10T02:51:32.596Z,8.20
2019-04-10T02:54:02.489Z,8.20
2019-04-10T02:56:32.643Z,8.20
2019-04-10T02:59:02.688Z,8.20
2019-04-10T03:01:31.606Z,8.30
2019-04-10T03:04:01.413Z,8.20
2019-04-10T03:06:31.129Z,8.20
2019-04-10T03:09:14.646Z,8.30
2019-04-10T03:11:31.235Z,8.30
2019-04-10T03:14:01.393Z,8.30
2019-04-10T03:16:31.161Z,8.30
2019-04-10T03:18:59.727Z,8.30
2019-04-10T03:21:29.132Z,8.30
2019-04-10T03:23:58.011Z,8.30
2019-04-10T03:26:27.809Z,8.40
2019-04-10T03:28:57.641Z,8.20
2019-04-10T03:31:27.744Z,8.20
2019-04-10T03:34:09.328Z,8.30
2019-04-10T03:36:45.412Z,8.30
2019-04-10T03:39:15.251Z,8.30
2019-04-10T03:41:44.267Z,8.20
2019-04-10T03:44:12.839Z,8.20
2019-04-10T03:46:41.364Z,8.20
2019-04-10T03:49:09.804Z,8.20
2019-04-10T03:51:38.782Z,8.20
2019-04-10T03:54:07.395Z,8.20
2019-04-10T03:56:36.032Z,8.10
2019-04-10T03:59:04.515Z,8.10
2019-04-10T04:01:33.400Z,8.10
2019-04-10T04:04:02.043Z,8.00
2019-04-10T04:06:31.452Z,8.00
2019-04-10T04:09:07.280Z,8.00
2019-04-10T04:11:31.387Z,8.00
2019-04-10T04:13:59.984Z,7.90
2019-04-10T04:16:28.450Z,8.00
2019-04-10T04:18:57.657Z,8.10
2019-04-10T04:21:26.202Z,8.10
2019-04-10T04:23:55.217Z,8.10
2019-04-10T04:26:23.859Z,8.00
2019-04-10T04:28:52.302Z,8.10
2019-04-10T04:31:20.786Z,8.10
2019-04-10T04:33:49.290Z,8.10
2019-04-10T04:36:18.270Z,8.10
2019-04-10T04:38:46.801Z,8.20
2019-04-10T04:41:15.472Z,8.10
2019-04-10T04:43:46.005Z,8.20
2019-04-10T04:46:14.159Z,8.10
2019-04-10T04:48:43.321Z,8.20
2019-04-10T04:51:11.940Z,8.20
2019-04-10T04:53:40.477Z,8.10
2019-04-10T04:56:09.474Z,8.10
2019-04-10T04:58:38.188Z,8.10
2019-04-10T05:01:06.771Z,8.20
2019-04-10T05:03:35.440Z,8.10
2019-04-10T05:06:04.048Z,8.10
2019-04-10T05:08:32.506Z,8.20
2019-04-10T05:11:02.121Z,8.10
2019-04-10T05:13:31.345Z,8.00
2019-04-10T05:16:03.811Z,7.90
2019-04-10T05:18:32.301Z,8.00
2019-04-10T05:21:00.945Z,8.00
2019-04-10T05:23:29.535Z,8.10
2019-04-10T05:25:59.144Z,8.00
2019-04-10T05:28:29.498Z,8.00
2019-04-10T05:30:58.929Z,8.00
2019-04-10T05:33:28.663Z,7.90
2019-04-10T05:35:57.507Z,7.90
2019-04-10T05:38:26.985Z,7.90
2019-04-10T05:40:55.687Z,7.90
2019-04-10T05:43:24.251Z,7.80
2019-04-10T05:45:53.067Z,7.80
2019-04-10T05:48:23.501Z,7.80
2019-04-10T05:50:56.659Z,7.80
2019-04-10T05:53:22.561Z,7.80
2019-04-10T05:55:51.594Z,7.80
2019-04-10T05:58:20.307Z,7.70
2019-04-10T06:00:49.798Z,7.70
2019-04-10T06:03:18.668Z,7.80
2019-04-10T06:05:48.623Z,7.80
2019-04-10T06:08:18.132Z,7.80
2019-04-10T06:10:47.741Z,8.00
2019-04-10T06:13:17.159Z,8.00
2019-04-10T06:15:45.742Z,8.00
2019-04-10T06:18:15.077Z,8.10
2019-04-10T06:20:45.150Z,8.10
2019-04-10T06:23:14.781Z,8.00
2019-04-10T06:25:43.683Z,8.10
2019-04-10T06:28:12.914Z,8.10
2019-04-10T06:30:41.908Z,8.20
2019-04-10T06:33:11.634Z,8.30
2019-04-10T06:35:40.215Z,8.30
2019-04-10T06:38:08.699Z,8.30
2019-04-10T06:40:37.679Z,8.20
2019-04-10T06:43:06.574Z,8.20
2019-04-10T06:45:35.719Z,8.20
2019-04-10T06:48:04.768Z,8.30
2019-04-10T06:50:33.224Z,8.30
2019-04-10T06:53:01.725Z,8.20
2019-04-10T06:55:30.277Z,8.20
2019-04-10T06:57:59.348Z,8.10
2019-04-10T07:00:28.610Z,8.00
2019-04-10T07:02:57.262Z,8.10
2019-04-10T07:05:37.034Z,8.00
2019-04-10T07:08:02.883Z,8.10
2019-04-10T07:10:34.376Z,8.10
2019-04-10T07:12:56.518Z,8.10
2019-04-10T07:15:25.657Z,8.20
2019-04-10T07:17:55.368Z,8.20
2019-04-10T07:20:24.144Z,8.20
2019-04-10T07:22:53.368Z,8.20
2019-04-10T07:25:22.071Z,8.20
2019-04-10T07:27:50.550Z,8.20
2019-04-10T07:30:19.523Z,8.20
2019-04-10T07:32:49.238Z,8.30
2019-04-10T07:35:21.475Z,8.40
2019-04-10T07:37:52.689Z,8.40
2019-04-10T07:40:18.905Z,8.40
2019-04-10T07:42:48.578Z,8.50
2019-04-10T07:45:17.290Z,8.70
2019-04-10T07:47:46.229Z,8.80
2019-04-10T07:50:16.397Z,9.00
2019-04-10T07:52:45.899Z,9.00
2019-04-10T07:55:14.965Z,9.00
2019-04-10T07:57:47.164Z,8.90
2019-04-10T08:00:16.042Z,8.90
2019-04-10T08:02:44.839Z,8.80
2019-04-10T08:05:13.497Z,8.60
2019-04-10T08:07:42.975Z,8.50
2019-04-10T08:10:12.121Z,8.40
2019-04-10T08:12:47.384Z,8.40
2019-04-10T08:15:11.221Z,8.50
2019-04-10T08:17:40.813Z,8.50
2019-04-10T08:20:10.023Z,8.40
2019-04-10T08:22:39.327Z,8.40
2019-04-10T08:25:08.859Z,8.40
2019-04-10T08:27:38.463Z,8.40
2019-04-10T08:30:10.842Z,8.50
2019-04-10T08:32:51.665Z,8.50
2019-04-10T08:35:09.623Z,8.50
2019-04-10T08:37:39.057Z,8.60
2019-04-10T08:40:09.615Z,8.70
2019-04-10T08:42:40.211Z,8.90
2019-04-10T08:45:09.464Z,8.80
2019-04-10T08:47:37.943Z,8.70
2019-04-10T08:50:07.783Z,8.90
2019-04-10T08:52:37.027Z,9.10
2019-04-10T08:55:06.062Z,9.20
2019-04-10T08:57:34.616Z,9.10
2019-04-10T09:00:04.651Z,9.20
2019-04-10T09:02:33.860Z,9.20
2019-04-10T09:05:03.532Z,9.20
2019-04-10T09:07:32.513Z,9.20
2019-04-10T09:10:01.884Z,9.20
2019-04-10T09:12:31.582Z,9.20
2019-04-10T09:15:01.350Z,9.20
2019-04-10T09:17:31.235Z,9.10
2019-04-10T09:20:00.554Z,8.90
2019-04-10T09:22:41.876Z,8.70
2019-04-10T09:25:00.622Z,8.60
2019-04-10T09:27:29.262Z,8.50
2019-04-10T09:29:57.715Z,8.40
2019-04-10T09:32:26.510Z,8.40
2019-04-10T09:34:56.066Z,8.30
2019-04-10T09:37:24.697Z,8.30
2019-04-10T09:39:53.917Z,8.50
2019-04-10T09:42:23.662Z,8.50
2019-04-10T09:44:52.825Z,8.60
2019-04-10T09:47:22.707Z,8.60
2019-04-10T09:49:51.446Z,8.60
2019-04-10T09:52:20.090Z,8.60
2019-04-10T09:54:48.926Z,8.70
2019-04-10T09:57:17.828Z,8.60
2019-04-10T09:59:47.275Z,8.70
2019-04-10T10:02:16.237Z,8.60
2019-04-10T10:04:46.006Z,8.70
2019-04-10T10:07:14.596Z,8.70
2019-04-10T10:09:43.290Z,8.60
2019-04-10T10:12:11.752Z,8.40
2019-04-10T10:14:40.219Z,8.30
2019-04-10T10:17:08.696Z,8.20
2019-04-10T10:19:39.097Z,8.10
2019-04-10T10:22:07.634Z,8.00
2019-04-10T10:24:36.275Z,8.00
2019-04-10T10:27:05.358Z,8.00
2019-04-10T10:29:33.949Z,7.90
2019-04-10T10:32:02.612Z,7.90
2019-04-10T10:34:31.298Z,8.00
2019-04-10T10:37:03.474Z,8.00
2019-04-10T10:39:31.010Z,8.10
2019-04-10T10:41:59.505Z,8.20
2019-04-10T10:44:27.991Z,8.20
2019-04-10T10:46:56.484Z,8.20
2019-04-10T10:49:24.961Z,8.20
2019-04-10T10:51:53.454Z,8.20
2019-04-10T10:54:23.028Z,8.20
2019-04-10T10:56:51.634Z,8.20
2019-04-10T10:59:20.120Z,8.20
2019-04-10T11:01:48.595Z,8.10
2019-04-10T11:04:17.045Z,8.10
2019-04-10T11:06:55.386Z,8.10
2019-04-10T11:09:16.370Z,8.00
2019-04-10T11:11:45.419Z,8.00
2019-04-10T11:14:15.055Z,8.00
2019-04-10T11:16:43.674Z,8.00
2019-04-10T11:19:13.055Z,8.10
2019-04-10T11:21:42.965Z,8.10
2019-04-10T11:24:11.554Z,8.10
2019-04-10T11:26:40.077Z,8.20
2019-04-10T11:29:09.926Z,8.10
2019-04-10T11:31:39.576Z,8.10
2019-04-10T11:34:09.989Z,8.00
2019-04-10T11:36:39.909Z,8.00
2019-04-10T11:39:16.849Z,8.00
2019-04-10T11:41:39.821Z,8.10
2019-04-10T11:44:11.357Z,8.20
2019-04-10T11:46:41.888Z,8.40
2019-04-10T11:49:13.534Z,8.40
2019-04-10T11:51:40.268Z,8.50
2019-04-10T11:54:13.041Z,8.60
2019-04-10T11:56:38.914Z,8.80
2019-04-10T11:59:09.826Z,9.00
2019-04-10T12:01:39.203Z,9.10
2019-04-10T12:04:10.197Z,9.30
2019-04-10T12:06:40.337Z,9.60
2019-04-10T12:09:51.252Z,9.90
2019-04-10T12:11:41.536Z,10.10
2019-04-10T12:14:11.006Z,10.30
2019-04-10T12:16:39.721Z,10.30
2019-04-10T12:19:08.282Z,10.40
2019-04-10T12:21:37.908Z,10.40
2019-04-10T12:24:07.419Z,10.60
2019-04-10T12:26:36.037Z,10.50
2019-04-10T12:29:04.895Z,10.40
2019-04-10T12:31:34.502Z,10.90
2019-04-10T12:34:03.318Z,11.30
2019-04-10T12:36:31.981Z,11.50
2019-04-10T12:39:00.535Z,11.90
2019-04-10T12:41:29.191Z,12.00
2019-04-10T12:43:59.042Z,12.10
2019-04-10T12:46:28.909Z,12.00
2019-04-10T12:48:59.710Z,11.70
2019-04-10T12:51:27.843Z,11.90
2019-04-10T12:53:56.497Z,11.80
2019-04-10T12:56:25.986Z,11.50
2019-04-10T12:58:55.163Z,11.30
2019-04-10T13:01:24.690Z,11.30
2019-04-10T13:03:53.662Z,11.20
2019-04-10T13:06:22.343Z,10.90
2019-04-10T13:09:00.781Z,10.90
2019-04-10T13:11:21.083Z,10.80
2019-04-10T13:13:51.189Z,10.80
2019-04-10T13:16:20.339Z,10.60
2019-04-10T13:18:49.021Z,10.50
2019-04-10T13:21:18.032Z,10.30
2019-04-10T13:23:46.869Z,10.10
2019-04-10T13:26:15.628Z,10.10
2019-04-10T13:28:44.187Z,10.20
2019-04-10T13:31:12.977Z,10.30
2019-04-10T13:33:41.572Z,10.40
2019-04-10T13:36:10.103Z,10.50
2019-04-10T13:38:38.573Z,10.40
2019-04-10T13:41:08.071Z,10.50
2019-04-10T13:43:36.723Z,10.50
2019-04-10T13:46:06.714Z,10.60
2019-04-10T13:48:35.579Z,10.60
2019-04-10T13:51:05.347Z,10.50
2019-04-10T13:53:34.252Z,10.50
2019-04-10T13:56:03.108Z,10.50
2019-04-10T13:58:31.599Z,10.40
2019-04-10T14:01:00.955Z,10.20
2019-04-10T14:03:30.147Z,10.10
2019-04-10T14:05:58.676Z,10.20
2019-04-10T14:08:40.250Z,10.20
2019-04-10T14:10:57.573Z,10.20
2019-04-10T14:13:26.119Z,10.20
2019-04-10T14:15:55.975Z,10.10
2019-04-10T14:18:24.614Z,10.10
2019-04-10T14:20:53.409Z,10.00
2019-04-10T14:23:31.518Z,9.90
2019-04-10T14:26:02.276Z,9.80
2019-04-10T14:28:33.365Z,9.80
2019-04-10T14:31:04.189Z,9.80
2019-04-10T14:33:32.867Z,9.80
2019-04-10T14:36:01.366Z,9.80
2019-04-10T14:38:30.761Z,9.80
2019-04-10T14:40:59.246Z,9.70
2019-04-10T14:43:28.441Z,9.70
2019-04-10T14:45:57.649Z,9.80
2019-04-10T14:48:26.176Z,9.80
2019-04-10T14:50:55.423Z,9.80
2019-04-10T14:53:24.882Z,9.60
2019-04-10T14:55:53.606Z,9.70
2019-04-10T14:58:29.003Z,9.70
2019-04-10T15:00:52.963Z,9.70
2019-04-10T15:03:22.466Z,9.70
2019-04-10T15:05:54.018Z,9.60
2019-04-10T15:08:21.757Z,9.50
2019-04-10T15:10:50.402Z,9.50
2019-04-10T15:13:21.312Z,9.40
2019-04-10T15:15:49.063Z,9.40
2019-04-10T15:18:18.472Z,9.50
2019-04-10T15:20:47.318Z,9.50
2019-04-10T15:23:15.901Z,9.40
2019-04-10T15:25:44.470Z,9.50
2019-04-10T15:28:13.956Z,9.50
2019-04-10T15:30:42.567Z,9.40
2019-04-10T15:33:14.117Z,9.40
2019-04-10T15:35:41.775Z,9.30
2019-04-10T15:38:11.597Z,9.40
2019-04-10T15:40:40.362Z,9.40
2019-04-10T15:43:08.899Z,9.40
2019-04-10T15:45:37.861Z,9.50
2019-04-10T15:48:06.637Z,9.50
2019-04-10T15:50:35.219Z,9.50
2019-04-10T15:53:04.103Z,9.60
2019-04-10T15:55:32.808Z,9.70
2019-04-10T15:58:02.856Z,9.80
2019-04-10T16:00:31.454Z,9.70
2019-04-10T16:03:00.771Z,9.80
2019-04-10T16:05:29.456Z,9.90
2019-04-10T16:07:58.671Z,9.90
2019-04-10T16:10:29.050Z,9.80
2019-04-10T16:12:59.718Z,9.80
2019-04-10T16:15:29.958Z,9.80
2019-04-10T16:18:09.347Z,9.80
2019-04-10T16:20:38.917Z,9.70
2019-04-10T16:23:18.536Z,9.70
2019-04-10T16:25:48.687Z,9.70
2019-04-10T16:28:17.952Z,9.50
2019-04-10T16:30:46.791Z,9.50
2019-04-10T16:33:15.300Z,9.50
2019-04-10T16:35:44.047Z,9.50
2019-04-10T16:38:12.707Z,9.50
2019-04-10T16:40:41.144Z,9.50
2019-04-10T16:43:09.695Z,9.50
2019-04-10T16:45:38.503Z,9.40
2019-04-10T16:48:08.471Z,9.30
2019-04-10T16:50:38.794Z,9.40
2019-04-10T16:53:07.583Z,9.30
2019-04-10T16:55:36.657Z,9.30
2019-04-10T16:58:05.397Z,9.30
2019-04-10T17:00:33.911Z,9.30
2019-04-10T17:03:02.390Z,9.30
2019-04-10T17:05:33.629Z,9.20
2019-04-10T17:08:01.435Z,9.20
2019-04-10T17:10:30.324Z,9.20
2019-04-10T17:12:58.929Z,9.20
2019-04-10T17:15:28.200Z,9.20
2019-04-10T17:17:56.953Z,9.20
2019-04-10T17:20:26.754Z,9.10
2019-04-10T17:22:56.230Z,9.10
2019-04-10T17:25:24.856Z,9.10
2019-04-10T17:27:54.122Z,9.10
2019-04-10T17:30:22.777Z,9.10
2019-04-10T17:32:52.182Z,9.20
2019-04-10T17:35:21.354Z,9.20
2019-04-10T17:37:50.039Z,9.20
2019-04-10T17:40:29.722Z,9.20
2019-04-10T17:42:49.347Z,9.10
2019-04-10T17:45:18.549Z,9.20
2019-04-10T17:47:47.279Z,9.20
2019-04-10T17:50:18.256Z,9.20
2019-04-10T17:52:47.270Z,9.10
2019-04-10T17:55:15.941Z,9.00
2019-04-10T17:57:45.997Z,8.90
2019-04-10T18:00:22.946Z,8.90
2019-04-10T18:02:51.700Z,8.90
2019-04-10T18:05:20.465Z,8.90
2019-04-10T18:07:49.209Z,9.00
2019-04-10T18:10:18.342Z,9.00
2019-04-10T18:12:48.029Z,9.00
2019-04-10T18:15:16.732Z,9.00
2019-04-10T18:17:45.186Z,9.00
2019-04-10T18:20:15.684Z,9.00
2019-04-10T18:22:44.902Z,9.10
2019-04-10T18:25:13.864Z,9.10
2019-04-10T18:27:42.818Z,9.00
2019-04-10T18:30:12.062Z,9.00
2019-04-10T18:32:40.607Z,9.00
2019-04-10T18:35:09.224Z,9.00
2019-04-10T18:37:37.720Z,9.00
2019-04-10T18:40:07.454Z,8.90
2019-04-10T18:42:37.301Z,8.90
2019-04-10T18:45:07.611Z,8.90
2019-04-10T18:47:38.073Z,9.00
2019-04-10T18:50:07.820Z,9.00
2019-04-10T18:52:37.358Z,8.90
2019-04-10T18:55:06.424Z,8.90
2019-04-10T18:57:35.697Z,8.90
2019-04-10T19:00:26.237Z,8.90
2019-04-10T19:03:12.962Z,8.80
2019-04-10T19:05:49.155Z,8.80
2019-04-10T19:08:17.706Z,8.80
2019-04-10T19:10:47.326Z,8.90
2019-04-10T19:13:17.175Z,8.80
2019-04-10T19:15:46.960Z,8.80
2019-04-10T19:18:15.622Z,8.90
2019-04-10T19:20:44.086Z,8.90
2019-04-10T19:23:13.022Z,8.90
2019-04-10T19:25:41.572Z,8.80
2019-04-10T19:28:10.771Z,8.80
2019-04-10T19:30:43.856Z,8.80
2019-04-10T19:33:12.379Z,8.70
2019-04-10T19:35:41.383Z,8.70
2019-04-10T19:38:10.006Z,8.70
2019-04-10T19:40:38.775Z,8.70
2019-04-10T19:43:08.294Z,8.70
2019-04-10T19:45:36.935Z,8.60
2019-04-10T19:48:06.698Z,8.50
2019-04-10T19:50:35.277Z,8.50
2019-04-10T19:53:04.738Z,8.50
2019-04-10T19:55:33.382Z,8.50
2019-04-10T19:58:01.878Z,8.50
2019-04-10T20:00:32.624Z,8.50
2019-04-10T20:03:01.622Z,8.40
2019-04-10T20:05:30.139Z,8.40
2019-04-10T20:07:59.672Z,8.30
2019-04-10T20:10:28.321Z,8.30
2019-04-10T20:12:57.201Z,8.40
2019-04-10T20:15:26.698Z,8.30
2019-04-10T20:17:56.611Z,8.40
2019-04-10T20:20:25.235Z,8.30
2019-04-10T20:22:53.758Z,8.20
2019-04-10T20:25:22.223Z,8.20
2019-04-10T20:27:50.787Z,8.10
2019-04-10T20:30:21.503Z,8.10
2019-04-10T20:32:50.229Z,8.00
2019-04-10T20:35:18.832Z,8.00
2019-04-10T20:37:47.283Z,7.90
2019-04-10T20:40:15.961Z,7.90
2019-04-10T20:42:44.654Z,7.90
2019-04-10T20:45:14.452Z,7.90
2019-04-10T20:47:43.743Z,7.90
2019-04-10T20:50:12.285Z,7.80
2019-04-10T20:52:41.058Z,7.80
2019-04-10T20:55:11.278Z,7.80
2019-04-10T20:57:39.825Z,7.70
2019-04-10T21:00:10.523Z,7.70
2019-04-10T21:02:39.347Z,7.70
2019-04-10T21:05:09.668Z,7.60
2019-04-10T21:07:38.026Z,7.60
2019-04-10T21:10:08.540Z,7.60
2019-04-10T21:12:37.165Z,7.60
2019-04-10T21:15:06.567Z,7.60
2019-04-10T21:17:35.018Z,7.50
2019-04-10T21:20:05.641Z,7.60
2019-04-10T21:22:34.169Z,7.60
2019-04-10T21:25:02.938Z,7.60
2019-04-10T21:27:32.041Z,7.60
2019-04-10T21:30:20.166Z,7.60
2019-04-10T21:32:52.841Z,7.50
2019-04-10T21:35:22.864Z,7.60
2019-04-10T21:37:51.445Z,7.60
2019-04-10T21:40:20.703Z,7.60
2019-04-10T21:42:49.738Z,7.60
2019-04-10T21:45:18.284Z,7.50
2019-04-10T21:47:46.755Z,7.60
2019-04-10T21:50:15.574Z,7.60
2019-04-10T21:52:44.026Z,7.60
2019-04-10T21:55:12.926Z,7.60
2019-04-10T21:57:42.473Z,7.50
2019-04-10T22:00:12.277Z,7.50
2019-04-10T22:02:40.834Z,7.50
2019-04-10T22:05:10.210Z,7.50
2019-04-10T22:07:50.305Z,7.50
2019-04-10T22:10:20.647Z,7.40
2019-04-10T22:12:52.213Z,7.40
2019-04-10T22:15:30.934Z,7.40
2019-04-10T22:18:00.774Z,7.40
2019-04-10T22:20:31.828Z,7.40
2019-04-10T22:23:01.781Z,7.30
2019-04-10T22:25:30.519Z,7.30
2019-04-10T22:27:59.049Z,7.30
2019-04-10T22:30:27.571Z,7.30
2019-04-10T22:32:56.169Z,7.30
2019-04-10T22:35:25.578Z,7.30
2019-04-10T22:37:54.504Z,7.20
2019-04-10T22:40:23.617Z,7.30
2019-04-10T22:42:53.266Z,7.30
2019-04-10T22:45:31.031Z,7.30
2019-04-10T22:48:00.750Z,7.20
2019-04-10T22:50:29.429Z,7.20
2019-04-10T22:52:59.095Z,7.30
2019-04-10T22:55:28.152Z,7.30
2019-04-10T22:57:56.966Z,7.30
2019-04-10T23:00:30.353Z,7.20
2019-04-10T23:02:59.168Z,7.20
2019-04-10T23:05:28.811Z,7.30
2019-04-10T23:07:57.555Z,7.30
2019-04-10T23:10:26.790Z,7.20
2019-04-10T23:13:01.304Z,7.20
2019-04-10T23:15:27.187Z,7.20
2019-04-10T23:17:57.123Z,7.30
2019-04-10T23:20:25.961Z,7.30
2019-04-10T23:22:54.874Z,7.20
2019-04-10T23:25:24.673Z,7.30
2019-04-10T23:27:55.178Z,7.30
2019-04-10T23:30:24.509Z,7.30
2019-04-10T23:32:53.522Z,7.30
2019-04-10T23:35:22.211Z,7.20
2019-04-10T23:37:51.168Z,7.20
2019-04-10T23:40:20.921Z,7.10
2019-04-10T23:43:01.287Z,7.00
2019-04-10T23:45:19.895Z,6.90
2019-04-10T23:47:48.671Z,7.00
2019-04-10T23:50:18.455Z,6.90
2019-04-10T23:52:47.911Z,6.90
2019-04-10T23:55:17.681Z,6.90
2019-04-10T23:57:46.439Z,6.90
